createdAt,value
2017-07-19T00:00:12.186Z,0
2017-07-19T00:01:12.168Z,0
2017-07-19T00:02:12.143Z,0
2017-07-19T00:03:12.131Z,0
2017-07-19T00:04:11.496Z,0
2017-07-19T00:05:12.117Z,0
2017-07-19T00:06:12.237Z,0
2017-07-19T00:07:12.049Z,0
2017-07-19T00:08:12.021Z,0
2017-07-19T00:09:11.710Z,0
2017-07-19T00:10:11.980Z,0
2017-07-19T00:11:11.972Z,0
2017-07-19T00:12:11.948Z,0
2017-07-19T00:13:11.925Z,0
2017-07-19T00:14:11.622Z,0
2017-07-19T00:15:11.611Z,0
2017-07-19T00:16:11.873Z,0
2017-07-19T00:17:11.849Z,0
2017-07-19T00:18:11.821Z,0
2017-07-19T00:19:11.812Z,0
2017-07-19T00:20:11.803Z,0
2017-07-19T00:21:11.765Z,0
2017-07-19T00:22:11.806Z,0
2017-07-19T00:23:11.425Z,0
2017-07-19T00:24:11.722Z,0
2017-07-19T00:25:11.688Z,0
2017-07-19T00:26:11.675Z,0
2017-07-19T00:27:11.651Z,0
2017-07-19T00:28:11.624Z,0
2017-07-19T00:29:11.605Z,0
2017-07-19T00:30:11.605Z,0
2017-07-19T00:31:11.562Z,0
2017-07-19T00:32:11.561Z,0
2017-07-19T00:33:11.533Z,0
2017-07-19T00:34:11.213Z,0
2017-07-19T00:35:11.493Z,0
2017-07-19T00:36:11.483Z,0
2017-07-19T00:37:11.463Z,0
2017-07-19T00:38:11.437Z,0
2017-07-19T00:39:11.448Z,0
2017-07-19T00:40:11.403Z,0
2017-07-19T00:41:11.373Z,0
2017-07-19T00:42:11.354Z,0
2017-07-19T00:43:11.035Z,0
2017-07-19T00:44:11.362Z,0
2017-07-19T00:45:11.307Z,0
2017-07-19T00:46:11.020Z,0
2017-07-19T00:47:11.257Z,0
2017-07-19T00:48:11.235Z,0
2017-07-19T00:49:11.218Z,0
2017-07-19T00:50:10.889Z,0
2017-07-19T00:51:11.177Z,0
2017-07-19T00:52:11.145Z,0
2017-07-19T00:53:10.839Z,0
2017-07-19T00:54:11.120Z,0
2017-07-19T00:55:11.088Z,0
2017-07-19T00:56:11.072Z,0
2017-07-19T00:57:11.052Z,0
2017-07-19T00:58:11.034Z,0
2017-07-19T00:59:11.012Z,0
2017-07-19T01:00:11.009Z,0
2017-07-19T01:01:11.039Z,0
2017-07-19T01:02:11.005Z,0
2017-07-19T01:03:10.931Z,0
2017-07-19T01:04:10.920Z,0
2017-07-19T01:05:10.899Z,0
2017-07-19T01:06:10.867Z,0
2017-07-19T01:07:10.851Z,0
2017-07-19T01:08:11.039Z,0
2017-07-19T01:09:10.974Z,0
2017-07-19T01:10:10.787Z,0
2017-07-19T01:11:10.473Z,0
2017-07-19T01:12:10.756Z,0
2017-07-19T01:13:10.735Z,0
2017-07-19T01:14:10.714Z,0
2017-07-19T01:15:10.692Z,0
2017-07-19T01:16:10.678Z,0
2017-07-19T01:17:10.660Z,0
2017-07-19T01:18:10.894Z,0
2017-07-19T01:19:10.633Z,0
2017-07-19T01:20:10.592Z,0
2017-07-19T01:21:10.650Z,0
2017-07-19T01:22:10.557Z,0
2017-07-19T01:23:10.260Z,0
2017-07-19T01:24:10.517Z,0
2017-07-19T01:25:10.501Z,0
2017-07-19T01:26:10.475Z,0
2017-07-19T01:27:10.585Z,0
2017-07-19T01:28:10.436Z,0
2017-07-19T01:29:10.413Z,0
2017-07-19T01:30:10.402Z,0
2017-07-19T01:31:10.083Z,0
2017-07-19T01:32:10.373Z,0
2017-07-19T01:33:10.350Z,0
2017-07-19T01:34:10.329Z,0
2017-07-19T01:35:10.299Z,0
2017-07-19T01:36:10.302Z,0
2017-07-19T01:37:10.255Z,0
2017-07-19T01:38:10.237Z,0
2017-07-19T01:39:10.211Z,0
2017-07-19T01:40:09.894Z,0
2017-07-19T01:41:10.172Z,0
2017-07-19T01:42:10.168Z,0
2017-07-19T01:43:10.129Z,0
2017-07-19T01:44:10.119Z,0
2017-07-19T01:45:10.088Z,0
2017-07-19T01:46:10.076Z,0
2017-07-19T01:47:10.058Z,0
2017-07-19T01:48:10.034Z,0
2017-07-19T01:49:10.015Z,0
2017-07-19T01:50:10.004Z,0
2017-07-19T01:51:09.970Z,0
2017-07-19T01:52:09.952Z,0
2017-07-19T01:53:09.934Z,0
2017-07-19T01:54:09.907Z,0
2017-07-19T01:55:09.895Z,0
2017-07-19T01:56:09.869Z,0
2017-07-19T01:57:09.919Z,0
2017-07-19T01:58:09.886Z,0
2017-07-19T01:59:09.816Z,0
2017-07-19T02:00:09.492Z,0
2017-07-19T02:01:09.771Z,0
2017-07-19T02:02:09.752Z,0
2017-07-19T02:03:09.433Z,0
2017-07-19T02:04:09.421Z,0
2017-07-19T02:05:09.694Z,0
2017-07-19T02:06:09.672Z,0
2017-07-19T02:07:09.652Z,0
2017-07-19T02:08:09.026Z,0
2017-07-19T02:09:09.609Z,0
2017-07-19T02:10:09.559Z,0
2017-07-19T02:11:09.581Z,0
2017-07-19T02:12:09.249Z,0
2017-07-19T02:13:09.225Z,0
2017-07-19T02:14:09.511Z,0
2017-07-19T02:15:09.504Z,0
2017-07-19T02:16:09.477Z,0
2017-07-19T02:17:09.453Z,0
2017-07-19T02:18:09.441Z,0
2017-07-19T02:19:09.412Z,0
2017-07-19T02:20:09.398Z,0
2017-07-19T02:21:09.368Z,0
2017-07-19T02:22:09.359Z,0
2017-07-19T02:23:09.368Z,0
2017-07-19T02:24:09.023Z,0
2017-07-19T02:25:09.350Z,0
2017-07-19T02:26:09.266Z,0
2017-07-19T02:27:09.317Z,0
2017-07-19T02:28:09.294Z,0
2017-07-19T02:29:09.231Z,0
2017-07-19T02:30:09.255Z,0
2017-07-19T02:31:09.189Z,0
2017-07-19T02:32:09.155Z,0
2017-07-19T02:33:09.152Z,0
2017-07-19T02:34:09.110Z,0
2017-07-19T02:35:09.149Z,0
2017-07-19T02:36:08.762Z,0
2017-07-19T02:37:08.755Z,0
2017-07-19T02:38:09.039Z,0
2017-07-19T02:39:08.724Z,0
2017-07-19T02:40:09.002Z,0
2017-07-19T02:41:08.972Z,0
2017-07-19T02:42:08.955Z,0
2017-07-19T02:43:08.929Z,0
2017-07-19T02:44:08.672Z,0
2017-07-19T02:45:09.009Z,0
2017-07-19T02:46:08.891Z,0
2017-07-19T02:47:08.859Z,0
2017-07-19T02:48:08.838Z,0
2017-07-19T02:49:08.815Z,0
2017-07-19T02:50:08.863Z,0
2017-07-19T02:51:08.767Z,0
2017-07-19T02:52:08.765Z,0
2017-07-19T02:53:08.738Z,0
2017-07-19T02:54:08.413Z,0
2017-07-19T02:55:08.693Z,0
2017-07-19T02:56:08.385Z,0
2017-07-19T02:57:08.651Z,0
2017-07-19T02:58:08.632Z,0
2017-07-19T02:59:08.612Z,0
2017-07-19T03:00:08.601Z,0
2017-07-19T03:01:08.568Z,0
2017-07-19T03:02:08.547Z,0
2017-07-19T03:03:08.582Z,0
2017-07-19T03:04:08.570Z,0
2017-07-19T03:05:08.491Z,0
2017-07-19T03:06:08.182Z,0
2017-07-19T03:07:08.467Z,0
2017-07-19T03:08:08.438Z,0
2017-07-19T03:09:08.108Z,0
2017-07-19T03:10:08.444Z,0
2017-07-19T03:11:08.373Z,0
2017-07-19T03:12:08.347Z,0
2017-07-19T03:13:08.026Z,0
2017-07-19T03:14:08.306Z,0
2017-07-19T03:15:08.287Z,0
2017-07-19T03:16:07.968Z,0
2017-07-19T03:17:08.252Z,0
2017-07-19T03:18:07.926Z,0
2017-07-19T03:19:07.960Z,0
2017-07-19T03:20:08.221Z,0
2017-07-19T03:21:08.184Z,0
2017-07-19T03:22:08.146Z,0
2017-07-19T03:23:08.217Z,5
2017-07-19T03:24:07.820Z,5
2017-07-19T03:25:07.795Z,5
2017-07-19T03:26:07.785Z,5
2017-07-19T03:27:08.072Z,5
2017-07-19T03:28:08.022Z,5
2017-07-19T03:29:08.012Z,5
2017-07-19T03:30:07.700Z,5
2017-07-19T03:31:07.675Z,5
2017-07-19T03:32:07.944Z,5
2017-07-19T03:33:07.635Z,10
2017-07-19T03:34:07.945Z,10
2017-07-19T03:35:07.592Z,10
2017-07-19T03:36:07.871Z,10
2017-07-19T03:37:07.917Z,10
2017-07-19T03:38:07.823Z,10
2017-07-19T03:39:07.508Z,15
2017-07-19T03:40:07.486Z,15
2017-07-19T03:41:07.768Z,15
2017-07-19T03:42:07.750Z,15
2017-07-19T03:43:07.727Z,20
2017-07-19T03:44:07.409Z,20
2017-07-19T03:45:07.688Z,20
2017-07-19T03:46:07.684Z,20
2017-07-19T03:47:07.648Z,20
2017-07-19T03:48:07.330Z,25
2017-07-19T03:49:07.617Z,25
2017-07-19T03:50:07.599Z,25
2017-07-19T03:51:07.572Z,25
2017-07-19T03:52:07.544Z,30
2017-07-19T03:53:07.536Z,30
2017-07-19T03:54:07.510Z,30
2017-07-19T03:55:07.510Z,35
2017-07-19T03:56:07.471Z,35
2017-07-19T03:57:07.451Z,40
2017-07-19T03:58:07.427Z,40
2017-07-19T03:59:07.405Z,40
2017-07-19T04:00:07.388Z,45
2017-07-19T04:01:07.367Z,45
2017-07-19T04:02:07.350Z,50
2017-07-19T04:03:07.016Z,55
2017-07-19T04:04:07.309Z,55
2017-07-19T04:05:07.294Z,55
2017-07-19T04:06:07.263Z,60
2017-07-19T04:07:07.246Z,65
2017-07-19T04:08:06.914Z,65
2017-07-19T04:09:06.906Z,70
2017-07-19T04:10:07.190Z,75
2017-07-19T04:11:06.875Z,80
2017-07-19T04:12:07.131Z,80
2017-07-19T04:13:07.120Z,85
2017-07-19T04:14:06.800Z,90
2017-07-19T04:15:07.082Z,95
2017-07-19T04:16:07.065Z,100
2017-07-19T04:17:07.049Z,100
2017-07-19T04:18:06.730Z,110
2017-07-19T04:19:07.002Z,115
2017-07-19T04:20:07.046Z,115
2017-07-19T04:21:06.970Z,120
2017-07-19T04:22:06.948Z,120
2017-07-19T04:23:06.926Z,125
2017-07-19T04:24:06.918Z,120
2017-07-19T04:25:06.585Z,105
2017-07-19T04:26:06.884Z,95
2017-07-19T04:27:06.853Z,95
2017-07-19T04:28:06.828Z,95
2017-07-19T04:29:06.862Z,95
2017-07-19T04:30:06.795Z,100
2017-07-19T04:31:06.478Z,110
2017-07-19T04:32:06.741Z,125
2017-07-19T04:33:06.726Z,135
2017-07-19T04:34:06.713Z,135
2017-07-19T04:35:06.690Z,140
2017-07-19T04:36:06.682Z,150
2017-07-19T04:37:06.650Z,150
2017-07-19T04:38:06.627Z,155
2017-07-19T04:39:06.618Z,150
2017-07-19T04:40:06.689Z,145
2017-07-19T04:41:06.488Z,145
2017-07-19T04:42:06.557Z,145
2017-07-19T04:43:06.539Z,145
2017-07-19T04:44:06.538Z,145
2017-07-19T04:45:06.497Z,150
2017-07-19T04:46:06.488Z,155
2017-07-19T04:47:06.463Z,160
2017-07-19T04:48:06.443Z,180
2017-07-19T04:49:06.426Z,190
2017-07-19T04:50:06.098Z,200
2017-07-19T04:51:06.390Z,210
2017-07-19T04:52:06.376Z,225
2017-07-19T04:53:06.346Z,235
2017-07-19T04:54:06.326Z,240
2017-07-19T04:55:06.305Z,245
2017-07-19T04:56:06.288Z,255
2017-07-19T04:57:05.968Z,265
2017-07-19T04:58:05.949Z,270
2017-07-19T04:59:06.226Z,275
2017-07-19T05:00:06.215Z,285
2017-07-19T05:01:05.895Z,290
2017-07-19T05:02:05.884Z,285
2017-07-19T05:03:06.167Z,290
2017-07-19T05:04:06.146Z,295
2017-07-19T05:05:06.130Z,310
2017-07-19T05:06:06.131Z,305
2017-07-19T05:07:05.838Z,315
2017-07-19T05:08:05.759Z,320
2017-07-19T05:09:05.741Z,330
2017-07-19T05:10:06.035Z,330
2017-07-19T05:11:05.726Z,340
2017-07-19T05:12:06.003Z,345
2017-07-19T05:13:05.671Z,350
2017-07-19T05:14:05.978Z,355
2017-07-19T05:15:05.949Z,350
2017-07-19T05:16:05.625Z,355
2017-07-19T05:17:05.619Z,355
2017-07-19T05:18:05.877Z,360
2017-07-19T05:19:05.867Z,370
2017-07-19T05:20:05.270Z,370
2017-07-19T05:21:05.891Z,360
2017-07-19T05:22:05.850Z,360
2017-07-19T05:23:05.804Z,365
2017-07-19T05:24:05.523Z,360
2017-07-19T05:25:05.478Z,375
2017-07-19T05:26:05.495Z,370
2017-07-19T05:27:05.730Z,365
2017-07-19T05:28:05.443Z,370
2017-07-19T05:29:05.701Z,385
2017-07-19T05:30:05.686Z,390
2017-07-19T05:31:05.667Z,400
2017-07-19T05:32:05.656Z,420
2017-07-19T05:33:05.418Z,430
2017-07-19T05:34:05.617Z,445
2017-07-19T05:35:05.608Z,475
2017-07-19T05:36:05.574Z,505
2017-07-19T05:37:05.577Z,510
2017-07-19T05:38:05.545Z,525
2017-07-19T05:39:05.231Z,530
2017-07-19T05:40:05.518Z,525
2017-07-19T05:41:05.217Z,525
2017-07-19T05:42:05.491Z,520
2017-07-19T05:43:05.174Z,510
2017-07-19T05:44:05.455Z,420
2017-07-19T05:45:05.140Z,435
2017-07-19T05:46:05.435Z,490
2017-07-19T05:47:05.422Z,505
2017-07-19T05:48:05.302Z,520
2017-07-19T05:49:05.373Z,525
2017-07-19T05:50:05.077Z,510
2017-07-19T05:51:05.235Z,510
2017-07-19T05:52:05.381Z,525
2017-07-19T05:53:05.362Z,520
2017-07-19T05:54:04.996Z,500
2017-07-19T05:55:04.984Z,505
2017-07-19T05:56:05.281Z,485
2017-07-19T05:57:04.647Z,445
2017-07-19T05:58:05.234Z,450
2017-07-19T05:59:05.261Z,500
2017-07-19T06:00:04.932Z,515
2017-07-19T06:01:05.194Z,515
2017-07-19T06:02:05.175Z,560
2017-07-19T06:03:04.869Z,550
2017-07-19T06:04:05.141Z,550
2017-07-19T06:05:04.937Z,585
2017-07-19T06:06:04.814Z,600
2017-07-19T06:07:05.117Z,605
2017-07-19T06:08:05.082Z,585
2017-07-19T06:09:05.058Z,625
2017-07-19T06:10:05.056Z,630
2017-07-19T06:11:04.758Z,630
2017-07-19T06:12:04.715Z,635
2017-07-19T06:13:05.016Z,640
2017-07-19T06:14:04.994Z,640
2017-07-19T06:15:04.695Z,650
2017-07-19T06:16:05.030Z,665
2017-07-19T06:17:04.963Z,670
2017-07-19T06:18:05.008Z,695
2017-07-19T06:19:04.628Z,715
2017-07-19T06:20:04.917Z,690
2017-07-19T06:21:04.890Z,690
2017-07-19T06:22:04.867Z,700
2017-07-19T06:23:04.578Z,650
2017-07-19T06:24:04.863Z,650
2017-07-19T06:25:04.893Z,635
2017-07-19T06:26:04.832Z,655
2017-07-19T06:27:04.802Z,665
2017-07-19T06:28:04.784Z,660
2017-07-19T06:29:04.795Z,705
2017-07-19T06:30:04.762Z,720
2017-07-19T06:31:04.762Z,740
2017-07-19T06:32:04.439Z,755
2017-07-19T06:33:04.735Z,770
2017-07-19T06:34:04.416Z,780
2017-07-19T06:35:04.696Z,785
2017-07-19T06:36:04.673Z,800
2017-07-19T06:37:04.689Z,800
2017-07-19T06:38:04.658Z,810
2017-07-19T06:39:04.698Z,805
2017-07-19T06:40:04.621Z,805
2017-07-19T06:41:04.669Z,795
2017-07-19T06:42:04.609Z,805
2017-07-19T06:43:04.581Z,790
2017-07-19T06:44:04.280Z,800
2017-07-19T06:45:04.564Z,820
2017-07-19T06:46:04.545Z,825
2017-07-19T06:47:04.548Z,830
2017-07-19T06:48:04.527Z,840
2017-07-19T06:49:04.502Z,850
2017-07-19T06:50:04.492Z,860
2017-07-19T06:51:04.485Z,870
2017-07-19T06:52:04.167Z,885
2017-07-19T06:53:04.474Z,900
2017-07-19T06:54:04.488Z,915
2017-07-19T06:55:04.436Z,920
2017-07-19T06:56:04.420Z,925
2017-07-19T06:57:04.405Z,930
2017-07-19T06:58:04.445Z,940
2017-07-19T06:59:04.376Z,945
2017-07-19T07:00:04.073Z,965
2017-07-19T07:01:04.353Z,965
2017-07-19T07:02:04.034Z,980
2017-07-19T07:03:04.324Z,995
2017-07-19T07:04:04.314Z,1000
2017-07-19T07:05:04.295Z,985
2017-07-19T07:06:04.301Z,985
2017-07-19T07:07:04.284Z,995
2017-07-19T07:08:03.970Z,1020
2017-07-19T07:09:03.973Z,1020
2017-07-19T07:10:03.947Z,1015
2017-07-19T07:11:04.249Z,1025
2017-07-19T07:12:04.290Z,1020
2017-07-19T07:13:04.217Z,1020
2017-07-19T07:14:04.215Z,1035
2017-07-19T07:15:04.204Z,1020
2017-07-19T07:16:04.188Z,975
2017-07-19T07:17:04.185Z,1020
2017-07-19T07:18:04.156Z,1015
2017-07-19T07:19:04.144Z,1030
2017-07-19T07:20:03.832Z,1040
2017-07-19T07:21:04.131Z,1025
2017-07-19T07:22:04.118Z,1000
2017-07-19T07:23:04.109Z,1065
2017-07-19T07:24:04.117Z,1065
2017-07-19T07:25:04.130Z,1090
2017-07-19T07:26:04.076Z,1110
2017-07-19T07:27:04.084Z,1090
2017-07-19T07:28:04.058Z,1080
2017-07-19T07:29:04.047Z,1095
2017-07-19T07:30:04.040Z,1060
2017-07-19T07:31:04.019Z,1095
2017-07-19T07:32:03.998Z,1055
2017-07-19T07:33:03.693Z,1055
2017-07-19T07:34:03.980Z,1050
2017-07-19T07:35:03.979Z,1045
2017-07-19T07:36:03.960Z,1040
2017-07-19T07:37:03.966Z,1040
2017-07-19T07:38:03.938Z,1095
2017-07-19T07:39:03.933Z,1085
2017-07-19T07:40:03.940Z,1080
2017-07-19T07:41:03.618Z,1015
2017-07-19T07:42:03.594Z,1015
2017-07-19T07:43:03.895Z,1010
2017-07-19T07:44:03.896Z,1010
2017-07-19T07:45:03.876Z,1060
2017-07-19T07:46:03.867Z,975
2017-07-19T07:47:03.847Z,1005
2017-07-19T07:48:03.886Z,1005
2017-07-19T07:49:03.828Z,1040
2017-07-19T07:50:03.828Z,1030
2017-07-19T07:51:03.805Z,1070
2017-07-19T07:52:03.790Z,1185
2017-07-19T07:53:03.784Z,1210
2017-07-19T07:54:03.474Z,1215
2017-07-19T07:55:03.460Z,1170
2017-07-19T07:56:03.762Z,1160
2017-07-19T07:57:03.751Z,1190
2017-07-19T07:58:03.742Z,1130
2017-07-19T07:59:03.721Z,1155
2017-07-19T08:00:03.716Z,1140
2017-07-19T08:01:03.758Z,1175
2017-07-19T08:02:03.699Z,1175
2017-07-19T08:03:03.694Z,1120
2017-07-19T08:04:03.707Z,1135
2017-07-19T08:05:03.064Z,1090
2017-07-19T08:06:03.664Z,1135
2017-07-19T08:07:03.653Z,1155
2017-07-19T08:08:03.626Z,1140
2017-07-19T08:09:03.658Z,1135
2017-07-19T08:10:03.314Z,1085
2017-07-19T08:11:03.612Z,1110
2017-07-19T08:12:03.602Z,1195
2017-07-19T08:13:03.584Z,1210
2017-07-19T08:14:03.567Z,1185
2017-07-19T08:15:03.281Z,1160
2017-07-19T08:16:03.578Z,1180
2017-07-19T08:17:03.550Z,1280
2017-07-19T08:18:03.231Z,1305
2017-07-19T08:19:02.898Z,1345
2017-07-19T08:20:03.506Z,1400
2017-07-19T08:21:03.498Z,1470
2017-07-19T08:22:02.903Z,1490
2017-07-19T08:23:03.481Z,1505
2017-07-19T08:24:03.472Z,1460
2017-07-19T08:25:03.178Z,1310
2017-07-19T08:26:03.471Z,1390
2017-07-19T08:27:03.454Z,1420
2017-07-19T08:28:03.153Z,1255
2017-07-19T08:29:03.445Z,1190
2017-07-19T08:30:03.138Z,1325
2017-07-19T08:31:03.420Z,1285
2017-07-19T08:32:03.396Z,1290
2017-07-19T08:33:03.398Z,1345
2017-07-19T08:34:03.453Z,1255
2017-07-19T08:35:03.381Z,1345
2017-07-19T08:36:03.373Z,1400
2017-07-19T08:37:03.355Z,1490
2017-07-19T08:38:03.357Z,1250
2017-07-19T08:39:03.411Z,1315
2017-07-19T08:40:03.045Z,1305
2017-07-19T08:41:03.024Z,1245
2017-07-19T08:42:03.323Z,1210
2017-07-19T08:43:03.325Z,1160
2017-07-19T08:44:03.296Z,1065
2017-07-19T08:45:02.991Z,1125
2017-07-19T08:46:03.282Z,990
2017-07-19T08:47:03.269Z,930
2017-07-19T08:48:03.265Z,955
2017-07-19T08:49:03.262Z,980
2017-07-19T08:50:03.245Z,1125
2017-07-19T08:51:03.233Z,1040
2017-07-19T08:52:03.304Z,1000
2017-07-19T08:53:03.213Z,945
2017-07-19T08:54:02.914Z,1025
2017-07-19T08:55:03.191Z,1265
2017-07-19T08:56:03.200Z,1225
2017-07-19T08:57:03.182Z,1255
2017-07-19T08:58:03.171Z,1340
2017-07-19T08:59:03.161Z,1345
2017-07-19T09:00:03.154Z,1325
2017-07-19T09:01:03.181Z,1410
2017-07-19T09:02:03.136Z,1060
2017-07-19T09:03:03.120Z,955
2017-07-19T09:04:03.107Z,850
2017-07-19T09:05:02.795Z,1025
2017-07-19T09:06:03.109Z,990
2017-07-19T09:07:03.088Z,1080
2017-07-19T09:08:03.074Z,1385
2017-07-19T09:09:02.760Z,1535
2017-07-19T09:10:02.745Z,1690
2017-07-19T09:11:03.042Z,1620
2017-07-19T09:12:03.037Z,1455
2017-07-19T09:13:03.029Z,1535
2017-07-19T09:14:03.023Z,1535
2017-07-19T09:15:03.006Z,1630
2017-07-19T09:16:02.999Z,1535
2017-07-19T09:17:02.697Z,1525
2017-07-19T09:18:02.978Z,1425
2017-07-19T09:19:02.776Z,1485
2017-07-19T09:20:02.955Z,1295
2017-07-19T09:21:02.955Z,955
2017-07-19T09:22:02.995Z,915
2017-07-19T09:23:03.048Z,1135
2017-07-19T09:24:02.622Z,1110
2017-07-19T09:25:02.611Z,1035
2017-07-19T09:26:02.897Z,1100
2017-07-19T09:27:02.894Z,1125
2017-07-19T09:28:02.889Z,1025
2017-07-19T09:29:02.972Z,1325
2017-07-19T09:30:02.558Z,1255
2017-07-19T09:31:02.904Z,1210
2017-07-19T09:32:02.846Z,1365
2017-07-19T09:33:02.835Z,1460
2017-07-19T09:34:02.940Z,1585
2017-07-19T09:35:02.523Z,1585
2017-07-19T09:36:02.812Z,1750
2017-07-19T09:37:02.597Z,1845
2017-07-19T09:38:02.793Z,1900
2017-07-19T09:39:02.792Z,1905
2017-07-19T09:40:02.769Z,1975
2017-07-19T09:41:02.807Z,1985
2017-07-19T09:42:02.820Z,1700
2017-07-19T09:43:02.748Z,1255
2017-07-19T09:44:02.736Z,1205
2017-07-19T09:45:02.451Z,1180
2017-07-19T09:46:02.719Z,1230
2017-07-19T09:47:02.833Z,1620
2017-07-19T09:48:02.515Z,1725
2017-07-19T09:49:02.690Z,1680
2017-07-19T09:50:02.699Z,1375
2017-07-19T09:51:02.677Z,1575
2017-07-19T09:52:02.384Z,1720
2017-07-19T09:53:02.374Z,1745
2017-07-19T09:54:02.651Z,1620
2017-07-19T09:55:02.338Z,1660
2017-07-19T09:56:02.639Z,1690
2017-07-19T09:57:02.626Z,1800
2017-07-19T09:58:02.619Z,1755
2017-07-19T09:59:02.607Z,1710
2017-07-19T10:00:02.317Z,1725
2017-07-19T10:01:02.310Z,1745
2017-07-19T10:02:02.594Z,1615
2017-07-19T10:03:02.604Z,1495
2017-07-19T10:04:02.581Z,1475
2017-07-19T10:05:02.572Z,1610
2017-07-19T10:06:02.559Z,1725
2017-07-19T10:07:02.562Z,1660
2017-07-19T10:08:02.560Z,1730
2017-07-19T10:09:02.558Z,1800
2017-07-19T10:10:02.542Z,1845
2017-07-19T10:11:02.625Z,1865
2017-07-19T10:12:02.549Z,1870
2017-07-19T10:13:02.209Z,1905
2017-07-19T10:14:02.217Z,1920
2017-07-19T10:15:02.498Z,1955
2017-07-19T10:16:02.193Z,1965
2017-07-19T10:17:02.492Z,1965
2017-07-19T10:18:02.222Z,1930
2017-07-19T10:19:02.498Z,2010
2017-07-19T10:20:02.467Z,2050
2017-07-19T10:21:02.465Z,2060
2017-07-19T10:22:02.483Z,2060
2017-07-19T10:23:02.148Z,2055
2017-07-19T10:24:02.133Z,2055
2017-07-19T10:25:02.126Z,2065
2017-07-19T10:26:02.130Z,2070
2017-07-19T10:27:02.422Z,2075
2017-07-19T10:28:02.512Z,2085
2017-07-19T10:29:02.417Z,2110
2017-07-19T10:30:02.396Z,2120
2017-07-19T10:31:02.392Z,2095
2017-07-19T10:32:02.141Z,2105
2017-07-19T10:33:02.389Z,2100
2017-07-19T10:34:02.389Z,2090
2017-07-19T10:35:02.376Z,2080
2017-07-19T10:36:02.383Z,2060
2017-07-19T10:37:02.365Z,2060
2017-07-19T10:38:02.402Z,2055
2017-07-19T10:39:02.353Z,2030
2017-07-19T10:40:02.355Z,2025
2017-07-19T10:41:02.394Z,2010
2017-07-19T10:42:02.328Z,2025
2017-07-19T10:43:02.345Z,2025
2017-07-19T10:44:02.377Z,2040
2017-07-19T10:45:02.326Z,2035
2017-07-19T10:46:02.319Z,2050
2017-07-19T10:47:02.341Z,2060
2017-07-19T10:48:02.299Z,2070
2017-07-19T10:49:02.043Z,2065
2017-07-19T10:50:02.289Z,2040
2017-07-19T10:51:02.275Z,2010
2017-07-19T10:52:02.288Z,1980
2017-07-19T10:53:02.282Z,1950
2017-07-19T10:54:01.961Z,1925
2017-07-19T10:55:01.966Z,1880
2017-07-19T10:56:02.257Z,1840
2017-07-19T10:57:02.248Z,1825
2017-07-19T10:58:02.238Z,1825
2017-07-19T10:59:02.270Z,1870
2017-07-19T11:00:02.229Z,1865
2017-07-19T11:01:02.232Z,1885
2017-07-19T11:02:02.220Z,1860
2017-07-19T11:03:02.209Z,1860
2017-07-19T11:04:01.901Z,1860
2017-07-19T11:05:02.209Z,1855
2017-07-19T11:06:02.192Z,1815
2017-07-19T11:07:02.251Z,1770
2017-07-19T11:08:02.229Z,1745
2017-07-19T11:09:02.185Z,1760
2017-07-19T11:10:02.174Z,1760
2017-07-19T11:11:02.168Z,1795
2017-07-19T11:12:01.860Z,1830
2017-07-19T11:13:02.165Z,1860
2017-07-19T11:14:02.157Z,1910
2017-07-19T11:15:02.157Z,1995
2017-07-19T11:16:02.407Z,2035
2017-07-19T11:17:02.141Z,2040
2017-07-19T11:18:02.189Z,1945
2017-07-19T11:19:02.130Z,1090
2017-07-19T11:20:02.121Z,365
2017-07-19T11:21:02.118Z,345
2017-07-19T11:22:02.113Z,340
2017-07-19T11:23:02.403Z,340
2017-07-19T11:24:02.102Z,340
2017-07-19T11:25:01.803Z,340
2017-07-19T11:26:02.297Z,340
2017-07-19T11:27:02.069Z,345
2017-07-19T11:28:02.109Z,340
2017-07-19T11:29:01.752Z,345
2017-07-19T11:30:01.762Z,340
2017-07-19T11:31:02.036Z,345
2017-07-19T11:32:02.026Z,350
2017-07-19T11:33:02.019Z,355
2017-07-19T11:34:01.708Z,355
2017-07-19T11:35:02.019Z,355
2017-07-19T11:36:02.004Z,345
2017-07-19T11:37:01.983Z,340
2017-07-19T11:38:02.025Z,340
2017-07-19T11:39:01.960Z,340
2017-07-19T11:40:02.154Z,340
2017-07-19T11:41:01.864Z,335
2017-07-19T11:42:16.539Z,335
2017-07-19T11:43:01.673Z,335
2017-07-19T11:44:01.896Z,335
2017-07-19T11:45:01.897Z,330
2017-07-19T11:46:01.876Z,330
2017-07-19T11:47:01.862Z,325
2017-07-19T11:48:01.771Z,320
2017-07-19T11:49:01.534Z,325
2017-07-19T11:50:01.826Z,305
2017-07-19T11:51:01.537Z,310
2017-07-19T11:52:01.812Z,305
2017-07-19T11:53:01.497Z,315
2017-07-19T11:54:01.772Z,320
2017-07-19T11:55:01.767Z,330
2017-07-19T11:56:01.459Z,335
2017-07-19T11:57:01.740Z,340
2017-07-19T11:58:01.726Z,355
2017-07-19T11:59:01.712Z,370
2017-07-19T12:00:01.713Z,385
2017-07-19T12:01:01.730Z,400
2017-07-19T12:02:01.676Z,410
2017-07-19T12:03:01.375Z,415
2017-07-19T12:04:01.641Z,435
2017-07-19T12:05:01.638Z,430
2017-07-19T12:06:01.615Z,440
2017-07-19T12:07:01.615Z,460
2017-07-19T12:08:01.593Z,475
2017-07-19T12:09:01.586Z,480
2017-07-19T12:10:01.574Z,470
2017-07-19T12:11:01.559Z,460
2017-07-19T12:12:00.946Z,445
2017-07-19T12:13:01.547Z,435
2017-07-19T12:14:01.513Z,430
2017-07-19T12:15:01.270Z,420
2017-07-19T12:16:01.596Z,415
2017-07-19T12:17:01.209Z,410
2017-07-19T12:18:01.484Z,410
2017-07-19T12:19:01.467Z,405
2017-07-19T12:20:01.470Z,395
2017-07-19T12:21:01.175Z,390
2017-07-19T12:22:01.488Z,385
2017-07-19T12:23:01.391Z,375
2017-07-19T12:24:01.297Z,365
2017-07-19T12:25:01.381Z,355
2017-07-19T12:26:01.375Z,350
2017-07-19T12:27:01.397Z,345
2017-07-19T12:28:01.350Z,345
2017-07-19T12:29:01.321Z,340
2017-07-19T12:30:01.329Z,330
2017-07-19T12:31:01.305Z,335
2017-07-19T12:32:01.283Z,350
2017-07-19T12:33:01.329Z,340
2017-07-19T12:34:00.970Z,330
2017-07-19T12:35:01.258Z,330
2017-07-19T12:36:00.938Z,335
2017-07-19T12:37:01.217Z,340
2017-07-19T12:38:00.906Z,345
2017-07-19T12:39:00.950Z,345
2017-07-19T12:40:01.207Z,355
2017-07-19T12:41:01.184Z,365
2017-07-19T12:42:01.159Z,365
2017-07-19T12:43:00.850Z,375
2017-07-19T12:44:01.200Z,375
2017-07-19T12:45:01.216Z,370
2017-07-19T12:46:01.158Z,365
2017-07-19T12:47:01.154Z,350
2017-07-19T12:48:01.091Z,330
2017-07-19T12:49:00.786Z,325
2017-07-19T12:50:01.055Z,315
2017-07-19T12:51:01.042Z,315
2017-07-19T12:52:01.033Z,320
2017-07-19T12:53:01.082Z,320
2017-07-19T12:54:01.020Z,320
2017-07-19T12:55:01.015Z,315
2017-07-19T12:56:00.686Z,315
2017-07-19T12:57:01.026Z,305
2017-07-19T12:58:00.071Z,310
2017-07-19T12:59:00.942Z,315
2017-07-19T13:00:00.929Z,325
2017-07-19T13:01:00.614Z,320
2017-07-19T13:02:00.617Z,325
2017-07-19T13:03:00.903Z,325
2017-07-19T13:04:00.895Z,335
2017-07-19T13:05:00.590Z,325
2017-07-19T13:06:00.875Z,315
2017-07-19T13:07:00.850Z,310
2017-07-19T13:08:00.543Z,305
2017-07-19T13:09:00.524Z,295
2017-07-19T13:10:00.506Z,300
2017-07-19T13:11:00.818Z,320
2017-07-19T13:12:00.792Z,340
2017-07-19T13:13:00.468Z,355
2017-07-19T13:14:00.816Z,365
2017-07-19T13:15:00.747Z,370
2017-07-19T13:16:00.740Z,365
2017-07-19T13:17:00.830Z,360
2017-07-19T13:18:00.720Z,350
2017-07-19T13:19:00.699Z,340
2017-07-19T13:20:00.695Z,330
2017-07-19T13:21:00.699Z,325
2017-07-19T13:22:00.675Z,320
2017-07-19T13:23:00.711Z,310
2017-07-19T13:24:00.690Z,300
2017-07-19T13:25:00.637Z,300
2017-07-19T13:26:00.320Z,305
2017-07-19T13:27:00.613Z,290
2017-07-19T13:28:00.595Z,285
2017-07-19T13:29:00.332Z,280
2017-07-19T13:30:00.579Z,275
2017-07-19T13:31:00.559Z,270
2017-07-19T13:32:00.607Z,265
2017-07-19T13:33:00.566Z,265
2017-07-19T13:34:00.530Z,260
2017-07-19T13:35:00.569Z,255
2017-07-19T13:36:00.495Z,255
2017-07-19T13:37:00.478Z,255
2017-07-19T13:38:00.475Z,255
2017-07-19T13:39:00.466Z,255
2017-07-19T13:40:00.450Z,260
2017-07-19T13:41:00.186Z,265
2017-07-19T13:42:00.132Z,275
2017-07-19T13:43:00.400Z,275
2017-07-19T13:44:00.409Z,265
2017-07-19T13:45:00.484Z,250
2017-07-19T13:46:00.374Z,245
2017-07-19T13:47:00.359Z,245
2017-07-19T13:48:00.358Z,230
2017-07-19T13:49:00.338Z,225
2017-07-19T13:50:00.326Z,235
2017-07-19T13:51:00.023Z,240
2017-07-19T13:52:00.048Z,240
2017-07-19T13:53:00.284Z,240
2017-07-19T13:54:00.281Z,245